Time;durP1;ratioP1;P1;durP2;ratioP2;P2;SDS_P1;SDS_P2;PMS_P1;PMS_P2;Temp;Humidity;BMP_temperature;BMP_pressure;BME280_temperature;BME280_humidity;BME280_pressure;Samples;Min_cycle;Max_cycle;Signal;HPM_P1;HPM_P2
2022/01/23 00:00:15;;;;;;;;;;;4.40;96.00;;;;;;5092372;28;19928;-78
2022/01/23 00:02:42;;;;;;;;;;;4.40;96.00;;;;;;5084529;28;19928;-78
2022/01/23 00:05:08;;;;;;;;;;;4.40;96.00;;;;;;5090210;28;19935;-78
2022/01/23 00:07:39;;;;;;;;;;;4.40;96.00;;;;;;5087963;28;19932;-78
2022/01/23 00:10:06;;;;;;;;;;;4.40;96.00;;;;;;5085045;28;19935;-78
2022/01/23 00:12:39;;;;;;;;;;;4.40;96.00;;;;;;5086068;28;19931;-78
2022/01/23 00:17:50;;;;;;;;;;;4.40;96.00;;;;;;5086849;28;19969;-78
2022/01/23 00:20:17;;;;;;;;;;;4.40;96.00;;;;;;5092770;28;19936;-78
2022/01/23 00:22:47;;;;;;;;;;;4.40;96.00;;;;;;5094426;28;19928;-79
2022/01/23 00:30:45;;;;;;;;;;;4.40;96.10;;;;;;5097079;28;19980;-78
2022/01/23 00:33:13;;;;;;;;;;;4.40;96.10;;;;;;5091471;28;20774;-78
2022/01/23 00:35:40;;;;;;;;;;;4.40;96.10;;;;;;5097376;28;19927;-78
2022/01/23 00:38:09;;;;;;;;;;;4.40;96.10;;;;;;5091241;28;19943;-78
2022/01/23 00:40:36;;;;;;;;;;;4.40;96.10;;;;;;5094223;28;19928;-78
2022/01/23 00:43:08;;;;;;;;;;;4.40;96.10;;;;;;5091537;28;19936;-79
2022/01/23 00:45:42;;;;;;;;;;;4.40;96.10;;;;;;5092045;28;19945;-79
2022/01/23 00:48:09;;;;;;;;;;;4.40;96.10;;;;;;5090044;28;19932;-79
2022/01/23 00:50:37;;;;;;;;;;;4.40;96.00;;;;;;5095016;28;19928;-78
2022/01/23 00:53:04;;;;;;;;;;;4.40;96.00;;;;;;5092650;28;20202;-79
2022/01/23 00:55:32;;;;;;;;;;;4.40;96.00;;;;;;5092011;28;19935;-79
2022/01/23 00:57:59;;;;;;;;;;;4.40;96.00;;;;;;5094245;28;19928;-78
2022/01/23 01:00:25;;;;;;;;;;;4.40;96.10;;;;;;5092559;28;19932;-79
2022/01/23 01:02:52;;;;;;;;;;;4.40;96.10;;;;;;5089836;28;19932;-78
2022/01/23 01:05:19;;;;;;;;;;;4.40;96.10;;;;;;5095146;28;19927;-78
2022/01/23 01:07:45;;;;;;;;;;;4.40;96.10;;;;;;5091734;28;19928;-79
2022/01/23 01:10:18;;;;;;;;;;;4.30;96.10;;;;;;5089584;28;19939;-79
2022/01/23 01:12:49;;;;;;;;;;;4.30;96.10;;;;;;5089866;28;19963;-79
2022/01/23 01:15:31;;;;;;;;;;;4.30;96.10;;;;;;5090321;28;19927;-78
2022/01/23 01:31:45;;;;;;;;;;;4.30;96.10;;;;;;5088720;28;19935;-79
2022/01/23 01:34:16;;;;;;;;;;;4.30;96.10;;;;;;5091672;28;19932;-78
2022/01/23 01:36:48;;;;;;;;;;;4.30;96.10;;;;;;5085104;28;20485;-78
2022/01/23 01:39:15;;;;;;;;;;;4.30;96.10;;;;;;5085554;28;19971;-78
2022/01/23 01:41:42;;;;;;;;;;;4.30;96.10;;;;;;5085500;28;20072;-78
2022/01/23 01:44:10;;;;;;;;;;;4.30;96.10;;;;;;5093430;28;19932;-78
2022/01/23 01:46:37;;;;;;;;;;;4.30;96.10;;;;;;5089807;28;19954;-79
2022/01/23 01:49:03;;;;;;;;;;;4.30;96.10;;;;;;5092681;28;19931;-79
2022/01/23 01:51:32;;;;;;;;;;;4.30;96.10;;;;;;5095714;28;19928;-78
2022/01/23 01:54:05;;;;;;;;;;;4.30;96.10;;;;;;5090201;28;20422;-79
2022/01/23 01:56:39;;;;;;;;;;;4.30;96.10;;;;;;5092156;28;20066;-78
2022/01/23 01:59:17;;;;;;;;;;;4.30;96.10;;;;;;5086408;28;19932;-78
2022/01/23 02:09:58;;;;;;;;;;;4.30;96.10;;;;;;5085855;28;19994;-79
2022/01/23 02:18:00;;;;;;;;;;;4.30;96.10;;;;;;5049814;28;19927;-79
2022/01/23 02:23:29;;;;;;;;;;;4.30;96.10;;;;;;5086671;28;19935;-79
2022/01/23 02:50:47;;;;;;;;;;;4.30;96.20;;;;;;5036004;28;19984;-79
2022/01/23 02:55:58;;;;;;;;;;;4.30;96.20;;;;;;5090837;28;19928;-79
2022/01/23 02:58:32;;;;;;;;;;;4.30;96.20;;;;;;5087545;28;19928;-79
2022/01/23 03:01:09;;;;;;;;;;;4.30;96.20;;;;;;5088553;28;19932;-79
2022/01/23 03:03:38;;;;;;;;;;;4.30;96.20;;;;;;5085654;28;19928;-80
2022/01/23 03:06:19;;;;;;;;;;;4.30;96.20;;;;;;5086222;28;19935;-79
2022/01/23 03:09:10;;;;;;;;;;;4.30;96.20;;;;;;5087222;28;19945;-78
2022/01/23 03:12:00;;;;;;;;;;;4.30;96.20;;;;;;5090904;28;19939;-78
2022/01/23 03:14:40;;;;;;;;;;;4.30;96.20;;;;;;5087875;28;19934;-79
2022/01/23 03:25:43;;;;;;;;;;;4.30;96.10;;;;;;5080416;28;19981;-78
2022/01/23 03:28:20;;;;;;;;;;;4.30;96.10;;;;;;5087307;28;20731;-79
2022/01/23 03:30:54;;;;;;;;;;;4.30;96.10;;;;;;5086373;28;20409;-80
2022/01/23 03:33:21;;;;;;;;;;;4.30;96.10;;;;;;5085694;28;20024;-81
2022/01/23 03:35:47;;;;;;;;;;;4.30;96.10;;;;;;5089318;28;19939;-80
2022/01/23 03:38:14;;;;;;;;;;;4.30;96.10;;;;;;5085324;28;19989;-80
2022/01/23 03:40:42;;;;;;;;;;;4.30;96.10;;;;;;5084319;28;20419;-80
2022/01/23 03:43:11;;;;;;;;;;;4.30;96.10;;;;;;5092829;28;20295;-80
2022/01/23 03:46:08;;;;;;;;;;;4.30;96.10;;;;;;5090682;28;19939;-80
2022/01/23 03:51:19;;;;;;;;;;;4.30;96.10;;;;;;5085630;28;19940;-80
2022/01/23 03:53:46;;;;;;;;;;;4.30;96.10;;;;;;5085715;28;20033;-80
2022/01/23 03:56:14;;;;;;;;;;;4.30;96.10;;;;;;5084535;28;19927;-80
2022/01/23 03:58:41;;;;;;;;;;;4.30;96.10;;;;;;5086659;28;19979;-81
2022/01/23 04:01:08;;;;;;;;;;;4.30;96.10;;;;;;5085596;28;19932;-79
2022/01/23 04:03:37;;;;;;;;;;;4.30;96.10;;;;;;5087175;28;19928;-81
2022/01/23 04:06:03;;;;;;;;;;;4.30;96.10;;;;;;5086906;28;19928;-80
2022/01/23 04:08:30;;;;;;;;;;;4.30;96.10;;;;;;5084110;28;20482;-81
2022/01/23 04:10:57;;;;;;;;;;;4.30;96.00;;;;;;5084017;28;20334;-82
2022/01/23 04:13:30;;;;;;;;;;;4.30;96.00;;;;;;5093963;28;19928;-80
2022/01/23 04:16:12;;;;;;;;;;;4.30;96.00;;;;;;5083851;28;19956;-81
2022/01/23 04:19:09;;;;;;;;;;;4.30;96.00;;;;;;5087182;28;19977;-80
2022/01/23 04:32:48;;;;;;;;;;;4.30;96.10;;;;;;5084128;28;19935;-81
2022/01/23 04:35:43;;;;;;;;;;;4.30;96.10;;;;;;5090844;28;19928;-81
2022/01/23 04:46:49;;;;;;;;;;;4.30;96.10;;;;;;5085904;28;19939;-81
2022/01/23 05:00:15;;;;;;;;;;;4.30;96.10;;;;;;5084082;28;19931;-79
2022/01/23 05:03:20;;;;;;;;;;;4.30;96.10;;;;;;5079057;28;19935;-79
2022/01/23 05:05:39;;;;;;;;;;;4.30;96.10;;;;;;5085336;28;19932;-79
2022/01/23 05:08:08;;;;;;;;;;;4.30;96.10;;;;;;5078563;28;19928;-80
2022/01/23 05:10:35;;;;;;;;;;;4.30;96.10;;;;;;5085334;28;19985;-79
2022/01/23 05:13:02;;;;;;;;;;;4.30;96.10;;;;;;5087059;28;19936;-79
2022/01/23 05:15:28;;;;;;;;;;;4.20;96.10;;;;;;5086640;28;19971;-79
2022/01/23 05:17:56;;;;;;;;;;;4.30;96.10;;;;;;5085043;28;20163;-79
2022/01/23 05:20:26;;;;;;;;;;;4.30;96.10;;;;;;5088715;28;19959;-78
2022/01/23 05:22:58;;;;;;;;;;;4.30;96.10;;;;;;5083197;28;19932;-78
2022/01/23 05:25:28;;;;;;;;;;;4.30;96.10;;;;;;5082471;28;19939;-79
2022/01/23 05:27:54;;;;;;;;;;;4.30;96.10;;;;;;5092831;28;19999;-78
2022/01/23 05:30:21;;;;;;;;;;;4.30;96.10;;;;;;5090951;28;19979;-78
2022/01/23 05:32:48;;;;;;;;;;;4.30;96.10;;;;;;5086046;28;19928;-78
2022/01/23 05:35:19;;;;;;;;;;;4.30;96.10;;;;;;5095576;28;19936;-78
2022/01/23 05:37:45;;;;;;;;;;;4.30;96.10;;;;;;5088353;28;19928;-78
2022/01/23 05:40:14;;;;;;;;;;;4.30;96.10;;;;;;5085892;28;19928;-78
2022/01/23 05:42:41;;;;;;;;;;;4.30;96.10;;;;;;5087069;28;19967;-79
2022/01/23 05:45:08;;;;;;;;;;;4.30;96.10;;;;;;5097107;28;19932;-78
2022/01/23 05:47:36;;;;;;;;;;;4.30;96.10;;;;;;5086260;28;20399;-79
2022/01/23 05:50:03;;;;;;;;;;;4.30;96.10;;;;;;5088748;28;19932;-78
2022/01/23 05:52:31;;;;;;;;;;;4.30;96.10;;;;;;5088326;28;19928;-78
2022/01/23 05:54:58;;;;;;;;;;;4.30;96.10;;;;;;5086964;28;20022;-78
2022/01/23 05:57:24;;;;;;;;;;;4.30;96.10;;;;;;5085387;28;19932;-80
2022/01/23 05:59:51;;;;;;;;;;;4.30;96.10;;;;;;5090653;28;19988;-79
2022/01/23 06:02:17;;;;;;;;;;;4.30;96.10;;;;;;5085466;28;20346;-80
2022/01/23 06:04:44;;;;;;;;;;;4.30;96.00;;;;;;5090479;28;19934;-80
2022/01/23 06:07:10;;;;;;;;;;;4.30;96.10;;;;;;5090633;28;20045;-80
2022/01/23 06:09:40;;;;;;;;;;;4.30;96.10;;;;;;5085491;28;19931;-79
2022/01/23 06:12:08;;;;;;;;;;;4.20;96.00;;;;;;5086115;28;19928;-79
2022/01/23 06:14:34;;;;;;;;;;;4.30;96.10;;;;;;5089167;28;19939;-82
2022/01/23 06:17:01;;;;;;;;;;;4.30;96.40;;;;;;5083958;28;19936;-79
2022/01/23 06:19:27;;;;;;;;;;;4.30;96.10;;;;;;5087681;28;19965;-80
2022/01/23 06:21:54;;;;;;;;;;;4.30;96.10;;;;;;5085835;28;20300;-80
2022/01/23 06:24:26;;;;;;;;;;;4.30;96.10;;;;;;5083114;28;20292;-80
2022/01/23 06:26:54;;;;;;;;;;;4.30;96.10;;;;;;5077228;28;20448;-80
2022/01/23 06:29:21;;;;;;;;;;;4.30;96.10;;;;;;5092170;28;19928;-79
2022/01/23 06:31:49;;;;;;;;;;;4.20;96.00;;;;;;5085282;28;20183;-81
2022/01/23 06:34:17;;;;;;;;;;;4.30;96.10;;;;;;5088915;28;19975;-80
2022/01/23 06:36:44;;;;;;;;;;;4.30;96.10;;;;;;5086472;28;19928;-80
2022/01/23 06:39:11;;;;;;;;;;;4.30;96.10;;;;;;5085222;28;20621;-81
2022/01/23 06:41:38;;;;;;;;;;;4.20;96.00;;;;;;5085296;28;20268;-81
2022/01/23 06:44:06;;;;;;;;;;;4.20;96.10;;;;;;5086894;28;19951;-81
2022/01/23 06:46:33;;;;;;;;;;;4.20;96.10;;;;;;5086198;28;19928;-80
2022/01/23 06:49:00;;;;;;;;;;;4.30;96.10;;;;;;5081478;28;19928;-81
2022/01/23 06:51:27;;;;;;;;;;;4.20;96.10;;;;;;5093026;28;19928;-80
2022/01/23 06:53:53;;;;;;;;;;;4.20;96.10;;;;;;5085160;28;19928;-80
2022/01/23 06:56:20;;;;;;;;;;;4.30;96.10;;;;;;5084036;28;19928;-79
2022/01/23 06:58:46;;;;;;;;;;;4.20;96.10;;;;;;5086401;28;19958;-79
2022/01/23 07:01:15;;;;;;;;;;;4.20;96.10;;;;;;5081220;28;20418;-80
2022/01/23 07:03:42;;;;;;;;;;;4.20;96.10;;;;;;5084304;28;19928;-81
2022/01/23 07:06:08;;;;;;;;;;;4.20;96.10;;;;;;5085047;28;20795;-80
2022/01/23 07:08:35;;;;;;;;;;;4.20;96.10;;;;;;5084645;28;19928;-81
2022/01/23 07:11:02;;;;;;;;;;;4.20;96.10;;;;;;5082770;28;19935;-79
2022/01/23 07:13:28;;;;;;;;;;;4.20;96.10;;;;;;5088435;28;19981;-80
2022/01/23 07:15:55;;;;;;;;;;;4.20;96.10;;;;;;5087024;28;19997;-78
2022/01/23 07:18:23;;;;;;;;;;;4.20;96.20;;;;;;5084015;28;19955;-80
2022/01/23 07:20:49;;;;;;;;;;;4.20;96.10;;;;;;5086079;28;19928;-80
2022/01/23 07:23:21;;;;;;;;;;;4.20;96.10;;;;;;5086080;28;19932;-80
2022/01/23 07:25:47;;;;;;;;;;;4.20;96.10;;;;;;5080385;28;20257;-80
2022/01/23 07:28:16;;;;;;;;;;;4.20;96.10;;;;;;5090699;28;19928;-79
2022/01/23 07:30:49;;;;;;;;;;;4.20;96.10;;;;;;5086127;28;19935;-80
2022/01/23 07:33:16;;;;;;;;;;;4.20;96.10;;;;;;5087653;28;20384;-82
2022/01/23 07:35:43;;;;;;;;;;;4.20;96.10;;;;;;5089175;28;19939;-80
2022/01/23 07:38:11;;;;;;;;;;;4.20;96.10;;;;;;5086731;28;19931;-81
2022/01/23 07:40:37;;;;;;;;;;;4.20;96.10;;;;;;5085722;28;19928;-80
2022/01/23 07:43:04;;;;;;;;;;;4.20;96.10;;;;;;5088714;28;19939;-81
2022/01/23 07:45:31;;;;;;;;;;;4.20;96.10;;;;;;5093809;28;19931;-79
2022/01/23 07:47:57;;;;;;;;;;;4.20;96.10;;;;;;5084266;28;19940;-79
2022/01/23 07:50:24;;;;;;;;;;;4.20;96.10;;;;;;5095969;28;19928;-79
2022/01/23 07:52:52;;;;;;;;;;;4.20;96.10;;;;;;5083502;28;19982;-79
2022/01/23 07:55:18;;;;;;;;;;;4.20;96.10;;;;;;5084561;28;19928;-78
2022/01/23 07:57:45;;;;;;;;;;;4.20;96.10;;;;;;5091828;28;19928;-78
2022/01/23 08:00:12;;;;;;;;;;;4.20;96.10;;;;;;5089840;28;20888;-80
2022/01/23 08:02:39;;;;;;;;;;;4.20;96.10;;;;;;5077912;28;19932;-79
2022/01/23 08:05:06;;;;;;;;;;;4.20;96.10;;;;;;5092337;28;20780;-79
2022/01/23 08:07:34;;;;;;;;;;;4.20;96.10;;;;;;5084200;28;19932;-79
2022/01/23 08:10:04;;;;;;;;;;;4.20;96.10;;;;;;5074308;28;20049;-80
2022/01/23 08:12:31;;;;;;;;;;;4.20;96.10;;;;;;5081829;28;20131;-79
2022/01/23 08:14:59;;;;;;;;;;;4.20;96.10;;;;;;5086914;28;19928;-79
2022/01/23 08:17:25;;;;;;;;;;;4.20;96.10;;;;;;5078012;28;19936;-79
2022/01/23 08:19:53;;;;;;;;;;;4.20;96.10;;;;;;5091860;28;19957;-79
2022/01/23 08:22:20;;;;;;;;;;;4.20;96.10;;;;;;5082136;28;20054;-79
2022/01/23 08:24:46;;;;;;;;;;;4.20;96.10;;;;;;5077396;28;19928;-78
2022/01/23 08:27:14;;;;;;;;;;;4.20;96.10;;;;;;5080270;28;19936;-79
2022/01/23 08:29:41;;;;;;;;;;;4.20;96.10;;;;;;5087582;28;19932;-80
2022/01/23 08:32:08;;;;;;;;;;;4.20;96.10;;;;;;5080970;28;20346;-79
2022/01/23 08:34:36;;;;;;;;;;;4.20;96.10;;;;;;5082149;28;19935;-78
2022/01/23 08:37:02;;;;;;;;;;;4.20;96.00;;;;;;5086006;28;20007;-79
2022/01/23 08:39:31;;;;;;;;;;;4.20;96.00;;;;;;5082598;28;21866;-78
2022/01/23 08:41:58;;;;;;;;;;;4.20;96.00;;;;;;5092393;28;19935;-78
2022/01/23 08:44:27;;;;;;;;;;;4.20;96.10;;;;;;5096745;28;19950;-77
2022/01/23 08:46:54;;;;;;;;;;;4.20;96.00;;;;;;5088571;28;20399;-78
2022/01/23 08:49:21;;;;;;;;;;;4.20;96.00;;;;;;5084496;28;19943;-78
2022/01/23 08:51:49;;;;;;;;;;;4.20;96.10;;;;;;5085660;28;19962;-78
2022/01/23 08:54:16;;;;;;;;;;;4.20;96.10;;;;;;5091972;28;19970;-79
2022/01/23 08:56:43;;;;;;;;;;;4.20;96.10;;;;;;5085858;28;19928;-77
2022/01/23 08:59:10;;;;;;;;;;;4.20;96.00;;;;;;5086851;28;19932;-78
2022/01/23 09:01:38;;;;;;;;;;;4.20;96.00;;;;;;5088695;28;20284;-78
2022/01/23 09:04:05;;;;;;;;;;;4.20;96.00;;;;;;5084512;28;19951;-79
2022/01/23 09:06:32;;;;;;;;;;;4.20;96.30;;;;;;5090510;28;19947;-80
2022/01/23 09:09:00;;;;;;;;;;;4.20;96.00;;;;;;5087997;28;19928;-79
2022/01/23 09:11:39;;;;;;;;;;;4.20;96.00;;;;;;5087506;28;19936;-79
2022/01/23 09:14:07;;;;;;;;;;;4.20;96.00;;;;;;5093405;28;20342;-80
2022/01/23 09:16:34;;;;;;;;;;;4.20;96.00;;;;;;5079440;28;19935;-80
2022/01/23 09:19:02;;;;;;;;;;;4.20;96.00;;;;;;5085371;28;20213;-79
2022/01/23 09:21:29;;;;;;;;;;;4.30;96.00;;;;;;5088280;28;19928;-78
2022/01/23 09:23:55;;;;;;;;;;;4.30;96.00;;;;;;5085226;28;19957;-79
2022/01/23 09:26:23;;;;;;;;;;;4.30;96.00;;;;;;5085648;28;20482;-79
2022/01/23 09:28:52;;;;;;;;;;;4.30;96.00;;;;;;5096458;28;20027;-81
2022/01/23 09:31:28;;;;;;;;;;;4.30;95.90;;;;;;5086386;28;20359;-79
2022/01/23 09:33:54;;;;;;;;;;;4.30;95.90;;;;;;5083078;28;20304;-80
2022/01/23 09:36:22;;;;;;;;;;;4.20;95.90;;;;;;5086555;28;20791;-81
2022/01/23 09:38:49;;;;;;;;;;;4.30;95.90;;;;;;5086779;28;19932;-80
2022/01/23 09:41:17;;;;;;;;;;;4.30;95.90;;;;;;5088077;28;19928;-79
2022/01/23 09:43:43;;;;;;;;;;;4.30;95.90;;;;;;5087206;28;20528;-80
2022/01/23 09:46:10;;;;;;;;;;;4.30;95.90;;;;;;5092937;28;20802;-80
2022/01/23 09:48:37;;;;;;;;;;;4.30;95.90;;;;;;5083648;28;20350;-79
2022/01/23 09:51:04;;;;;;;;;;;4.30;95.90;;;;;;5093971;28;19932;-79
2022/01/23 09:53:32;;;;;;;;;;;4.30;95.90;;;;;;5087716;28;19935;-80
2022/01/23 09:56:04;;;;;;;;;;;4.30;95.90;;;;;;5085336;28;20333;-79
2022/01/23 09:58:31;;;;;;;;;;;4.30;95.90;;;;;;5089278;28;19928;-79
2022/01/23 10:00:58;;;;;;;;;;;4.30;95.90;;;;;;5085230;28;20432;-80
2022/01/23 10:03:24;;;;;;;;;;;4.30;95.90;;;;;;5079676;28;19959;-80
2022/01/23 10:05:53;;;;;;;;;;;4.30;95.90;;;;;;5088144;28;19927;-79
2022/01/23 10:08:20;;;;;;;;;;;4.40;95.90;;;;;;5085714;28;19932;-79
2022/01/23 10:10:51;;;;;;;;;;;4.40;95.90;;;;;;5085613;28;19958;-78
2022/01/23 10:13:20;;;;;;;;;;;4.40;95.90;;;;;;5085401;28;20200;-80
2022/01/23 10:15:47;;;;;;;;;;;4.40;95.90;;;;;;5083473;28;19981;-80
2022/01/23 10:18:13;;;;;;;;;;;4.40;95.90;;;;;;5084073;28;19924;-79
2022/01/23 10:20:41;;;;;;;;;;;4.40;95.90;;;;;;5089541;28;19928;-79
2022/01/23 10:23:09;;;;;;;;;;;4.40;95.90;;;;;;5083504;28;19928;-80
2022/01/23 10:25:40;;;;;;;;;;;4.50;95.90;;;;;;5081536;28;20010;-80
2022/01/23 10:28:10;;;;;;;;;;;4.40;95.90;;;;;;5087690;28;19928;-79
2022/01/23 10:30:39;;;;;;;;;;;4.40;95.80;;;;;;5084253;28;19967;-80
2022/01/23 10:33:10;;;;;;;;;;;4.50;95.90;;;;;;5084951;28;19928;-81
2022/01/23 10:35:53;;;;;;;;;;;4.50;95.90;;;;;;5091861;28;19928;-81
2022/01/23 10:38:19;;;;;;;;;;;4.50;95.90;;;;;;5084767;28;20000;-79
2022/01/23 10:40:51;;;;;;;;;;;4.50;95.80;;;;;;5083703;28;19935;-79
2022/01/23 10:48:45;;;;;;;;;;;4.50;95.80;;;;;;5080088;28;19932;-79
2022/01/23 10:51:20;;;;;;;;;;;4.60;95.80;;;;;;5083181;28;19937;-79
2022/01/23 10:54:11;;;;;;;;;;;4.60;95.80;;;;;;5084695;28;20405;-79
2022/01/23 10:56:40;;;;;;;;;;;4.60;95.80;;;;;;5069414;28;19936;-79
2022/01/23 10:59:09;;;;;;;;;;;4.60;95.80;;;;;;5088336;28;20011;-83
2022/01/23 11:01:36;;;;;;;;;;;4.60;95.80;;;;;;5082385;28;20459;-83
2022/01/23 11:04:05;;;;;;;;;;;4.60;95.80;;;;;;5081665;28;21673;-82
2022/01/23 11:06:32;;;;;;;;;;;4.70;95.80;;;;;;5091462;28;19928;-82
2022/01/23 11:09:07;;;;;;;;;;;4.70;95.80;;;;;;5086175;28;20377;-82
2022/01/23 11:11:39;;;;;;;;;;;4.70;95.80;;;;;;5082449;28;19979;-82
2022/01/23 11:19:43;;;;;;;;;;;4.70;95.80;;;;;;5086791;28;20019;-82
2022/01/23 11:22:15;;;;;;;;;;;4.70;95.80;;;;;;5084081;28;19943;-81
2022/01/23 11:24:45;;;;;;;;;;;4.70;95.90;;;;;;5075650;28;19931;-82
2022/01/23 11:27:11;;;;;;;;;;;4.80;95.90;;;;;;5072966;28;19951;-80
2022/01/23 11:29:52;;;;;;;;;;;4.80;95.90;;;;;;5082670;28;19928;-79
2022/01/23 11:32:20;;;;;;;;;;;4.80;95.90;;;;;;5083534;28;20406;-78
2022/01/23 11:34:46;;;;;;;;;;;4.80;95.90;;;;;;5089548;28;19986;-80
2022/01/23 11:37:15;;;;;;;;;;;4.80;95.80;;;;;;5084514;28;19928;-81
2022/01/23 11:39:46;;;;;;;;;;;4.80;95.90;;;;;;5087436;28;19975;-80
2022/01/23 11:53:49;;;;;;;;;;;4.90;95.90;;;;;;5066249;28;19931;-79
2022/01/23 11:56:37;;;;;;;;;;;4.90;95.90;;;;;;5075793;28;19963;-79
2022/01/23 11:59:24;;;;;;;;;;;4.90;95.90;;;;;;5084254;28;19958;-81
2022/01/23 12:02:05;;;;;;;;;;;5.00;95.90;;;;;;5087343;28;19933;-80
2022/01/23 12:04:34;;;;;;;;;;;5.00;95.90;;;;;;5079645;28;20348;-80
2022/01/23 12:07:19;;;;;;;;;;;5.00;95.90;;;;;;5090956;28;20411;-80
2022/01/23 12:10:11;;;;;;;;;;;5.00;95.80;;;;;;5091156;28;19928;-80
2022/01/23 12:12:41;;;;;;;;;;;5.00;95.80;;;;;;5083272;28;19932;-80
2022/01/23 12:18:12;;;;;;;;;;;5.10;95.80;;;;;;5088529;28;20012;-79
2022/01/23 12:20:40;;;;;;;;;;;5.10;95.80;;;;;;5086463;28;19934;-80
2022/01/23 12:23:07;;;;;;;;;;;5.10;96.10;;;;;;5093403;28;20474;-79
2022/01/23 12:25:40;;;;;;;;;;;5.10;95.70;;;;;;5088228;28;19928;-80
2022/01/23 12:28:14;;;;;;;;;;;5.10;95.70;;;;;;5095157;28;20319;-80
2022/01/23 12:30:41;;;;;;;;;;;5.20;95.70;;;;;;5090756;28;19924;-80
2022/01/23 12:33:10;;;;;;;;;;;5.20;95.70;;;;;;5089787;28;19928;-80
2022/01/23 12:35:38;;;;;;;;;;;5.20;95.70;;;;;;5092348;28;19932;-81
2022/01/23 12:38:08;;;;;;;;;;;5.30;95.70;;;;;;5097304;28;20026;-80
2022/01/23 12:40:37;;;;;;;;;;;5.30;95.70;;;;;;5086569;28;19935;-79
2022/01/23 12:43:04;;;;;;;;;;;5.30;95.70;;;;;;5093733;28;19939;-79
2022/01/23 12:45:44;;;;;;;;;;;5.30;95.70;;;;;;5088966;28;20386;-79
2022/01/23 12:48:29;;;;;;;;;;;5.30;95.70;;;;;;5090616;28;19936;-77
2022/01/23 12:50:58;;;;;;;;;;;5.40;95.70;;;;;;5088278;28;19939;-78
2022/01/23 12:53:34;;;;;;;;;;;5.30;95.60;;;;;;5086552;28;19928;-78
2022/01/23 12:56:02;;;;;;;;;;;5.40;95.60;;;;;;5089399;28;19982;-78
2022/01/23 12:58:28;;;;;;;;;;;5.40;95.60;;;;;;5084886;28;19935;-77
2022/01/23 13:00:55;;;;;;;;;;;5.40;95.60;;;;;;5089779;28;19931;-79
2022/01/23 13:03:24;;;;;;;;;;;5.40;95.60;;;;;;5087815;28;19982;-78
2022/01/23 13:05:51;;;;;;;;;;;5.50;95.60;;;;;;5083717;28;19985;-78
2022/01/23 13:08:21;;;;;;;;;;;5.50;95.50;;;;;;5088166;28;19999;-77
2022/01/23 13:11:09;;;;;;;;;;;5.50;95.50;;;;;;5089745;28;19928;-78
2022/01/23 13:13:38;;;;;;;;;;;5.50;95.50;;;;;;5088840;28;20352;-77
2022/01/23 13:18:52;;;;;;;;;;;5.50;95.50;;;;;;5084450;28;20006;-79
2022/01/23 13:32:18;;;;;;;;;;;5.60;95.50;;;;;;5085999;28;20429;-79
2022/01/23 13:34:48;;;;;;;;;;;5.60;95.40;;;;;;5098013;28;20376;-78
2022/01/23 13:37:15;;;;;;;;;;;5.60;95.40;;;;;;5093110;28;19928;-79
2022/01/23 13:39:46;;;;;;;;;;;5.60;95.40;;;;;;5085050;28;19977;-78
2022/01/23 13:42:41;;;;;;;;;;;5.60;95.40;;;;;;5087917;28;19936;-79
2022/01/23 13:48:07;;;;;;;;;;;5.60;95.40;;;;;;5088223;28;19935;-78
2022/01/23 13:53:25;;;;;;;;;;;5.60;95.40;;;;;;5044100;28;19924;-79
2022/01/23 13:58:39;;;;;;;;;;;5.70;95.30;;;;;;5093244;28;20592;-79
2022/01/23 14:01:30;;;;;;;;;;;5.70;95.30;;;;;;5082513;28;20544;-78
2022/01/23 14:03:57;;;;;;;;;;;5.70;95.30;;;;;;5088418;28;19928;-78
2022/01/23 14:06:25;;;;;;;;;;;5.70;95.30;;;;;;5085461;28;19981;-78
2022/01/23 14:09:02;;;;;;;;;;;5.70;95.20;;;;;;5092250;28;19946;-78
2022/01/23 14:11:29;;;;;;;;;;;5.70;95.20;;;;;;5087976;28;19932;-77
2022/01/23 14:14:08;;;;;;;;;;;5.70;95.30;;;;;;5087662;28;20031;-78
2022/01/23 14:16:35;;;;;;;;;;;5.70;95.20;;;;;;5089352;28;19954;-78
2022/01/23 14:19:12;;;;;;;;;;;5.70;95.20;;;;;;5087884;28;19927;-79
2022/01/23 14:21:40;;;;;;;;;;;5.70;95.20;;;;;;5085256;28;20395;-78
2022/01/23 14:24:07;;;;;;;;;;;5.80;95.20;;;;;;5086479;28;19928;-78
2022/01/23 14:26:33;;;;;;;;;;;5.80;95.20;;;;;;5082209;28;19932;-79
2022/01/23 14:29:05;;;;;;;;;;;5.80;95.20;;;;;;5086593;28;19928;-78
2022/01/23 14:31:36;;;;;;;;;;;5.80;95.20;;;;;;5090323;28;19931;-79
2022/01/23 14:34:05;;;;;;;;;;;5.80;95.30;;;;;;5084304;28;19934;-78
2022/01/23 14:36:33;;;;;;;;;;;5.80;95.10;;;;;;5089385;28;20388;-79
2022/01/23 14:39:00;;;;;;;;;;;5.80;95.10;;;;;;5087701;28;19955;-78
2022/01/23 14:41:29;;;;;;;;;;;5.80;95.10;;;;;;5084515;28;20328;-78
2022/01/23 14:43:56;;;;;;;;;;;5.80;95.10;;;;;;5091154;28;19928;-78
2022/01/23 14:46:24;;;;;;;;;;;5.80;95.10;;;;;;5088760;28;19932;-78
2022/01/23 14:48:58;;;;;;;;;;;5.80;95.10;;;;;;5086645;28;19985;-78
2022/01/23 14:51:26;;;;;;;;;;;5.80;95.10;;;;;;5094251;28;20163;-79
2022/01/23 14:53:54;;;;;;;;;;;5.90;95.10;;;;;;5088033;28;19929;-78
2022/01/23 14:56:20;;;;;;;;;;;5.80;95.10;;;;;;5080742;28;20300;-78
2022/01/23 14:58:49;;;;;;;;;;;5.80;95.10;;;;;;5089161;28;19997;-79
2022/01/23 15:01:16;;;;;;;;;;;5.80;95.00;;;;;;5088617;28;19928;-79
2022/01/23 15:03:47;;;;;;;;;;;5.90;95.00;;;;;;5080302;28;20667;-79
2022/01/23 15:06:15;;;;;;;;;;;5.80;94.90;;;;;;5086472;28;19928;-78
2022/01/23 15:08:44;;;;;;;;;;;5.80;94.90;;;;;;5082577;28;19935;-79
2022/01/23 15:11:11;;;;;;;;;;;5.80;94.90;;;;;;5093791;28;20324;-79
2022/01/23 15:13:37;;;;;;;;;;;5.90;94.90;;;;;;5086432;28;19935;-78
2022/01/23 15:16:04;;;;;;;;;;;5.90;94.80;;;;;;5086378;28;20445;-79
2022/01/23 15:18:31;;;;;;;;;;;5.80;94.80;;;;;;5080903;28;19943;-78
2022/01/23 15:20:59;;;;;;;;;;;5.90;94.80;;;;;;5095453;28;19939;-79
2022/01/23 15:23:26;;;;;;;;;;;5.90;94.70;;;;;;5087196;28;19935;-79
2022/01/23 15:25:53;;;;;;;;;;;5.80;94.60;;;;;;5087403;28;19997;-79
2022/01/23 15:28:20;;;;;;;;;;;5.90;94.60;;;;;;5085309;28;19931;-79
2022/01/23 15:30:49;;;;;;;;;;;5.80;94.60;;;;;;5093259;28;19927;-78
2022/01/23 15:33:15;;;;;;;;;;;5.80;94.60;;;;;;5084665;28;19928;-78
2022/01/23 15:35:47;;;;;;;;;;;5.90;94.60;;;;;;5089418;28;19928;-79
2022/01/23 15:38:15;;;;;;;;;;;5.90;94.60;;;;;;5085407;28;19957;-78
2022/01/23 15:40:42;;;;;;;;;;;5.90;94.50;;;;;;5082022;28;19932;-79
2022/01/23 15:43:09;;;;;;;;;;;5.80;94.40;;;;;;5090897;28;19935;-79
2022/01/23 15:45:35;;;;;;;;;;;5.80;94.40;;;;;;5088227;28;20532;-79
2022/01/23 15:48:02;;;;;;;;;;;5.80;94.40;;;;;;5083928;28;19928;-78
2022/01/23 15:50:28;;;;;;;;;;;5.80;94.30;;;;;;5093139;28;19957;-78
2022/01/23 15:52:55;;;;;;;;;;;5.90;94.30;;;;;;5085656;28;19939;-79
2022/01/23 15:55:24;;;;;;;;;;;5.80;94.30;;;;;;5083550;28;19992;-79
2022/01/23 15:57:51;;;;;;;;;;;5.80;94.30;;;;;;5086877;28;20555;-79
2022/01/23 16:00:18;;;;;;;;;;;5.80;94.30;;;;;;5086763;28;20398;-76
2022/01/23 16:02:45;;;;;;;;;;;5.80;94.30;;;;;;5084951;28;19929;-79
2022/01/23 16:05:12;;;;;;;;;;;5.80;94.30;;;;;;5081671;28;22010;-78
2022/01/23 16:07:38;;;;;;;;;;;5.80;94.30;;;;;;5079023;28;19928;-79
2022/01/23 16:10:05;;;;;;;;;;;5.80;94.20;;;;;;5088724;28;19977;-78
2022/01/23 16:12:33;;;;;;;;;;;5.80;94.20;;;;;;5082412;28;19928;-78
2022/01/23 16:15:00;;;;;;;;;;;5.80;94.20;;;;;;5085068;28;19932;-78
2022/01/23 16:17:26;;;;;;;;;;;5.80;94.20;;;;;;5072870;28;19931;-77
2022/01/23 16:19:55;;;;;;;;;;;5.80;94.10;;;;;;5084137;28;19928;-78
2022/01/23 16:22:21;;;;;;;;;;;5.80;94.10;;;;;;5081592;28;20746;-78
2022/01/23 16:24:48;;;;;;;;;;;5.80;94.10;;;;;;5077267;28;19928;-78
2022/01/23 16:27:15;;;;;;;;;;;5.80;94.00;;;;;;5080979;28;19942;-78
2022/01/23 16:29:43;;;;;;;;;;;5.80;94.00;;;;;;5078552;28;19932;-77
2022/01/23 16:32:09;;;;;;;;;;;5.80;93.90;;;;;;5079542;28;20038;-78
2022/01/23 16:34:36;;;;;;;;;;;5.80;93.80;;;;;;5076150;28;20526;-78
2022/01/23 16:37:03;;;;;;;;;;;5.80;93.80;;;;;;5076121;28;20206;-78
2022/01/23 16:39:30;;;;;;;;;;;5.80;93.70;;;;;;5057732;28;19929;-79
2022/01/23 16:41:57;;;;;;;;;;;5.80;93.70;;;;;;5057724;28;19951;-77
2022/01/23 16:44:24;;;;;;;;;;;5.80;93.70;;;;;;5063354;28;19939;-78
2022/01/23 16:46:52;;;;;;;;;;;5.70;93.60;;;;;;5069345;28;19928;-78
2022/01/23 16:49:20;;;;;;;;;;;5.80;93.60;;;;;;5062936;28;20033;-78
2022/01/23 16:51:47;;;;;;;;;;;5.80;93.50;;;;;;5069321;28;19936;-79
2022/01/23 16:54:14;;;;;;;;;;;5.70;93.50;;;;;;5074620;28;19928;-78
2022/01/23 16:56:41;;;;;;;;;;;5.70;93.40;;;;;;5063884;28;19929;-77
2022/01/23 16:59:09;;;;;;;;;;;5.70;93.50;;;;;;5059753;28;19940;-78
2022/01/23 17:01:35;;;;;;;;;;;5.70;93.50;;;;;;5061988;28;19936;-78
2022/01/23 17:04:04;;;;;;;;;;;5.70;93.40;;;;;;5066954;28;20027;-79
2022/01/23 17:06:31;;;;;;;;;;;5.70;93.40;;;;;;5069051;28;19978;-79
2022/01/23 17:08:59;;;;;;;;;;;5.70;93.30;;;;;;5068878;28;19932;-78
2022/01/23 17:11:26;;;;;;;;;;;5.70;93.40;;;;;;5062193;28;20074;-77
2022/01/23 17:13:52;;;;;;;;;;;5.70;93.40;;;;;;5066899;28;19936;-78
2022/01/23 17:16:19;;;;;;;;;;;5.70;93.30;;;;;;5056726;28;20634;-78
2022/01/23 17:18:45;;;;;;;;;;;5.70;93.40;;;;;;5059369;28;19928;-78